Airlie, Virginia
Current Conditions -  °F | °C
As of 8:55 AM on Monday 24 Nov 2014 (Local Time) from KHWY Reporting Station
Overcast Overcast  
Wind Chill: 18°   Ceiling: 2700
Heat Index: 18°   Visibility: 10mi
Dew Point: 17°   Wind: 8mph
Humidity: 93%   Direction: 200°SSW
Pressure: 29.69"   Gusts: NA
Location:  38.6876°N, 77.819°W
Report Text: KHWY 241355Z AUTO 20007KT 10SM OVC027 18/17 A2969 RMK AO2 T01780167
Loading
Personal Weather Stations






























Interactive Weather Map New forecast layout! Learn more

10-Day Weather Forecast

Advertisements
Track Severe Weather on mobile